createdAt,value
2016-08-25T00:00:24.159Z,0
2016-08-25T00:01:24.175Z,0
2016-08-25T00:02:27.099Z,0
2016-08-25T00:03:25.674Z,0
2016-08-25T00:04:27.656Z,0
2016-08-25T00:05:25.941Z,0
2016-08-25T00:06:26.209Z,0
2016-08-25T00:07:24.149Z,0
2016-08-25T00:08:24.317Z,0
2016-08-25T00:09:24.134Z,0
2016-08-25T00:10:24.138Z,0
2016-08-25T00:11:24.833Z,0
2016-08-25T00:12:24.131Z,0
2016-08-25T00:13:24.131Z,0
2016-08-25T00:14:24.129Z,0
2016-08-25T00:15:24.130Z,0
2016-08-25T00:16:24.127Z,0
2016-08-25T00:17:24.129Z,0
2016-08-25T00:18:24.807Z,0
2016-08-25T00:19:24.111Z,0
2016-08-25T00:20:24.104Z,0
2016-08-25T00:21:24.113Z,0
2016-08-25T00:22:24.112Z,0
2016-08-25T00:23:24.100Z,0
2016-08-25T00:24:24.095Z,0
2016-08-25T00:25:24.113Z,0
2016-08-25T00:26:24.100Z,0
2016-08-25T00:27:24.078Z,0
2016-08-25T00:28:24.087Z,0
2016-08-25T00:29:24.081Z,0
2016-08-25T00:30:40.002Z,0
2016-08-25T00:31:25.377Z,0
2016-08-25T00:32:39.539Z,0
2016-08-25T00:33:24.527Z,0
2016-08-25T00:34:24.181Z,0
2016-08-25T00:35:25.167Z,0
2016-08-25T00:36:24.063Z,0
2016-08-25T00:37:24.064Z,0
2016-08-25T00:38:24.053Z,0
2016-08-25T00:39:38.978Z,0
2016-08-25T00:40:25.005Z,0
2016-08-25T00:41:24.094Z,0
2016-08-25T00:42:24.849Z,0
2016-08-25T00:43:38.954Z,0
2016-08-25T00:44:25.250Z,0
2016-08-25T00:45:24.033Z,0
2016-08-25T00:46:24.030Z,0
2016-08-25T00:47:24.029Z,0
2016-08-25T00:48:24.022Z,0
2016-08-25T00:49:24.018Z,0
2016-08-25T00:50:24.022Z,0
2016-08-25T00:51:24.014Z,0
2016-08-25T00:52:24.019Z,0
2016-08-25T00:53:24.011Z,0
2016-08-25T00:54:24.015Z,0
2016-08-25T00:55:24.007Z,0
2016-08-25T00:56:24.010Z,0
2016-08-25T00:57:24.006Z,0
2016-08-25T00:58:24.002Z,0
2016-08-25T00:59:23.997Z,0
2016-08-25T01:00:23.997Z,0
2016-08-25T01:01:23.992Z,0
2016-08-25T01:02:23.981Z,0
2016-08-25T01:03:23.987Z,0
2016-08-25T01:04:23.979Z,0
2016-08-25T01:05:23.965Z,0
2016-08-25T01:06:24.075Z,0
2016-08-25T01:07:23.973Z,0
2016-08-25T01:08:23.971Z,0
2016-08-25T01:09:23.979Z,0
2016-08-25T01:10:23.967Z,0
2016-08-25T01:11:26.298Z,0
2016-08-25T01:12:26.862Z,0
2016-08-25T01:13:27.521Z,0
2016-08-25T01:14:26.134Z,0
2016-08-25T01:15:23.958Z,0
2016-08-25T01:16:23.938Z,0
2016-08-25T01:17:23.948Z,0
2016-08-25T01:18:23.930Z,0
2016-08-25T01:19:23.939Z,0
2016-08-25T01:20:25.452Z,0
2016-08-25T01:21:28.601Z,0
2016-08-25T01:22:25.543Z,0
2016-08-25T01:23:24.507Z,0
2016-08-25T01:24:25.236Z,0
2016-08-25T01:25:24.896Z,0
2016-08-25T01:26:24.261Z,0
2016-08-25T01:27:23.915Z,0
2016-08-25T01:28:23.909Z,0
2016-08-25T01:29:23.904Z,0
2016-08-25T01:30:23.902Z,0
2016-08-25T01:31:23.902Z,0
2016-08-25T01:32:23.897Z,0
2016-08-25T01:33:23.893Z,0
2016-08-25T01:34:23.886Z,0
2016-08-25T01:35:23.879Z,0
2016-08-25T01:36:23.880Z,0
2016-08-25T01:37:23.887Z,0
2016-08-25T01:38:23.874Z,0
2016-08-25T01:39:23.877Z,0
2016-08-25T01:40:23.872Z,0
2016-08-25T01:41:23.867Z,0
2016-08-25T01:42:23.869Z,0
2016-08-25T01:43:23.857Z,0
2016-08-25T01:44:24.564Z,0
2016-08-25T01:45:23.844Z,0
2016-08-25T01:46:23.842Z,0
2016-08-25T01:47:23.858Z,0
2016-08-25T01:48:38.775Z,0
2016-08-25T01:49:24.313Z,0
2016-08-25T01:50:24.401Z,0
2016-08-25T01:51:24.286Z,0
2016-08-25T01:52:25.081Z,0
2016-08-25T01:53:24.429Z,0
2016-08-25T01:54:23.830Z,0
2016-08-25T01:55:23.825Z,0
2016-08-25T01:56:23.817Z,0
2016-08-25T01:57:23.815Z,0
2016-08-25T01:58:24.764Z,0
2016-08-25T01:59:24.514Z,0
2016-08-25T02:00:24.902Z,0
2016-08-25T02:01:39.174Z,0
2016-08-25T02:02:23.946Z,0
2016-08-25T02:03:23.798Z,0
2016-08-25T02:04:23.796Z,0
2016-08-25T02:05:23.794Z,0
2016-08-25T02:06:23.786Z,0
2016-08-25T02:07:23.784Z,0
2016-08-25T02:08:23.778Z,0
2016-08-25T02:09:23.778Z,0
2016-08-25T02:10:23.774Z,0
2016-08-25T02:11:23.765Z,0
2016-08-25T02:12:23.763Z,0
2016-08-25T02:13:23.766Z,0
2016-08-25T02:14:23.799Z,0
2016-08-25T02:15:23.751Z,0
2016-08-25T02:16:23.759Z,0
2016-08-25T02:17:23.752Z,0
2016-08-25T02:18:23.739Z,0
2016-08-25T02:19:23.744Z,0
2016-08-25T02:20:23.738Z,0
2016-08-25T02:21:23.736Z,0
2016-08-25T02:22:23.731Z,0
2016-08-25T02:23:23.732Z,0
2016-08-25T02:24:23.729Z,0
2016-08-25T02:25:23.726Z,0
2016-08-25T02:26:23.719Z,0
2016-08-25T02:27:23.712Z,0
2016-08-25T02:28:23.722Z,0
2016-08-25T02:31:25.568Z,0
2016-08-25T02:32:24.809Z,0
2016-08-25T02:33:25.774Z,0
2016-08-25T02:34:23.691Z,0
2016-08-25T02:35:23.699Z,0
2016-08-25T02:36:23.686Z,0
2016-08-25T02:37:23.679Z,0
2016-08-25T02:38:25.990Z,0
2016-08-25T02:40:25.595Z,0
2016-08-25T02:41:25.222Z,0
2016-08-25T02:42:24.423Z,0
2016-08-25T02:43:24.637Z,0
2016-08-25T02:44:24.441Z,0
2016-08-25T02:45:23.650Z,0
2016-08-25T02:46:23.649Z,0
2016-08-25T02:47:23.643Z,0
2016-08-25T02:48:23.638Z,0
2016-08-25T02:49:23.635Z,0
2016-08-25T02:50:23.643Z,0
2016-08-25T02:51:23.633Z,0
2016-08-25T02:52:23.622Z,0
2016-08-25T02:53:23.619Z,0
2016-08-25T02:54:23.615Z,0
2016-08-25T02:55:23.625Z,0
2016-08-25T02:56:23.611Z,0
2016-08-25T02:57:23.606Z,0
2016-08-25T02:58:23.606Z,0
2016-08-25T02:59:23.602Z,0
2016-08-25T03:00:23.595Z,0
2016-08-25T03:01:23.606Z,0
2016-08-25T03:02:24.295Z,0
2016-08-25T03:03:23.597Z,0
2016-08-25T03:04:23.587Z,0
2016-08-25T03:05:23.578Z,0
2016-08-25T03:06:23.628Z,0
2016-08-25T03:07:24.172Z,0
2016-08-25T03:08:23.863Z,0
2016-08-25T03:09:24.118Z,0
2016-08-25T03:10:23.786Z,0
2016-08-25T03:11:23.905Z,0
2016-08-25T03:12:23.552Z,0
2016-08-25T03:13:23.555Z,0
2016-08-25T03:14:23.550Z,0
2016-08-25T03:15:23.548Z,0
2016-08-25T03:16:24.549Z,0
2016-08-25T03:17:24.730Z,0
2016-08-25T03:18:24.383Z,0
2016-08-25T03:19:23.894Z,0
2016-08-25T03:20:23.521Z,0
2016-08-25T03:21:24.726Z,0
2016-08-25T03:22:23.509Z,0
2016-08-25T03:23:23.512Z,0
2016-08-25T03:24:24.198Z,0
2016-08-25T03:25:23.502Z,0
2016-08-25T03:26:23.500Z,0
2016-08-25T03:27:23.487Z,0
2016-08-25T03:28:23.487Z,0
2016-08-25T03:29:23.498Z,0
2016-08-25T03:30:23.486Z,0
2016-08-25T03:31:23.478Z,0
2016-08-25T03:32:23.476Z,0
2016-08-25T03:33:23.478Z,0
2016-08-25T03:34:23.469Z,0
2016-08-25T03:35:23.471Z,0
2016-08-25T03:36:23.456Z,0
2016-08-25T03:37:23.456Z,0
2016-08-25T03:38:23.461Z,0
2016-08-25T03:39:23.447Z,0
2016-08-25T03:40:23.448Z,0
2016-08-25T03:41:23.435Z,0
2016-08-25T03:42:23.442Z,0
2016-08-25T03:43:23.440Z,0
2016-08-25T03:44:23.437Z,0
2016-08-25T03:45:23.428Z,0
2016-08-25T03:46:23.423Z,0
2016-08-25T03:47:25.650Z,0
2016-08-25T03:48:27.428Z,0
2016-08-25T03:49:25.183Z,0
2016-08-25T03:50:25.017Z,0
2016-08-25T03:51:24.456Z,0
2016-08-25T03:52:23.398Z,0
2016-08-25T03:53:23.399Z,0
2016-08-25T03:54:23.399Z,5
2016-08-25T03:55:23.381Z,5
2016-08-25T03:58:26.348Z,5
2016-08-25T03:59:26.244Z,5
2016-08-25T04:00:25.067Z,5
2016-08-25T04:01:23.710Z,10
2016-08-25T04:02:24.043Z,10
2016-08-25T04:03:23.678Z,10
2016-08-25T04:04:23.351Z,10
2016-08-25T04:05:23.355Z,10
2016-08-25T04:06:23.494Z,15
2016-08-25T04:07:23.339Z,15
2016-08-25T04:08:23.335Z,15
2016-08-25T04:09:23.332Z,15
2016-08-25T04:10:23.334Z,20
2016-08-25T04:11:23.327Z,20
2016-08-25T04:12:24.017Z,20
2016-08-25T04:13:23.319Z,20
2016-08-25T04:14:23.314Z,25
2016-08-25T04:15:23.304Z,25
2016-08-25T04:16:23.304Z,25
2016-08-25T04:17:23.305Z,30
2016-08-25T04:18:23.298Z,30
2016-08-25T04:19:23.294Z,30
2016-08-25T04:20:23.293Z,35
2016-08-25T04:21:23.285Z,40
2016-08-25T04:22:23.288Z,40
2016-08-25T04:23:23.276Z,45
2016-08-25T04:24:23.272Z,50
2016-08-25T04:25:23.510Z,55
2016-08-25T04:26:23.465Z,60
2016-08-25T04:27:24.053Z,60
2016-08-25T04:28:38.315Z,65
2016-08-25T04:29:24.650Z,70
2016-08-25T04:30:23.797Z,70
2016-08-25T04:31:23.247Z,75
2016-08-25T04:32:23.243Z,80
2016-08-25T04:33:23.245Z,85
2016-08-25T04:34:24.029Z,90
2016-08-25T04:35:23.954Z,95
2016-08-25T04:36:23.879Z,95
2016-08-25T04:38:24.731Z,105
2016-08-25T04:39:23.577Z,110
2016-08-25T04:40:23.208Z,115
2016-08-25T04:41:23.208Z,115
2016-08-25T04:42:23.905Z,120
2016-08-25T04:43:23.197Z,125
2016-08-25T04:44:23.202Z,130
2016-08-25T04:45:23.206Z,135
2016-08-25T04:46:23.201Z,140
2016-08-25T04:47:23.900Z,145
2016-08-25T04:48:23.205Z,150
2016-08-25T04:49:23.192Z,160
2016-08-25T04:50:23.208Z,160
2016-08-25T04:51:23.193Z,165
2016-08-25T04:52:23.200Z,175
2016-08-25T04:53:23.191Z,180
2016-08-25T04:54:23.192Z,185
2016-08-25T04:55:23.189Z,185
2016-08-25T04:56:23.198Z,195
2016-08-25T04:57:23.186Z,200
2016-08-25T04:58:23.190Z,205
2016-08-25T04:59:23.208Z,210
2016-08-25T05:00:23.194Z,215
2016-08-25T05:01:23.200Z,220
2016-08-25T05:02:23.197Z,230
2016-08-25T05:03:23.198Z,235
2016-08-25T05:04:23.203Z,240
2016-08-25T05:05:25.730Z,245
2016-08-25T05:06:27.917Z,255
2016-08-25T05:07:26.195Z,260
2016-08-25T05:08:26.513Z,265
2016-08-25T05:09:23.379Z,270
2016-08-25T05:10:24.322Z,275
2016-08-25T05:11:23.210Z,285
2016-08-25T05:12:23.217Z,290
2016-08-25T05:13:23.227Z,305
2016-08-25T05:14:24.752Z,315
2016-08-25T05:16:24.487Z,325
2016-08-25T05:17:25.115Z,330
2016-08-25T05:18:24.428Z,335
2016-08-25T05:19:23.671Z,345
2016-08-25T05:20:23.272Z,350
2016-08-25T05:21:23.260Z,355
2016-08-25T05:22:23.274Z,365
2016-08-25T05:23:23.276Z,375
2016-08-25T05:24:23.284Z,380
2016-08-25T05:25:23.288Z,395
2016-08-25T05:26:23.287Z,400
2016-08-25T05:27:23.296Z,405
2016-08-25T05:28:23.309Z,410
2016-08-25T05:29:23.308Z,420
2016-08-25T05:30:23.312Z,425
2016-08-25T05:31:23.324Z,435
2016-08-25T05:32:23.334Z,435
2016-08-25T05:33:23.331Z,445
2016-08-25T05:34:23.341Z,455
2016-08-25T05:35:24.073Z,465
2016-08-25T05:36:23.347Z,475
2016-08-25T05:37:23.374Z,480
2016-08-25T05:38:23.371Z,490
2016-08-25T05:39:23.383Z,490
2016-08-25T05:40:23.387Z,495
2016-08-25T05:41:23.395Z,500
2016-08-25T05:42:23.418Z,500
2016-08-25T05:43:25.551Z,510
2016-08-25T05:44:23.591Z,520
2016-08-25T05:45:24.123Z,525
2016-08-25T05:46:23.682Z,535
2016-08-25T05:47:23.794Z,545
2016-08-25T05:48:23.504Z,555
2016-08-25T05:49:23.460Z,560
2016-08-25T05:50:23.481Z,565
2016-08-25T05:51:23.475Z,575
2016-08-25T05:53:23.501Z,575
2016-08-25T05:54:24.200Z,585
2016-08-25T05:55:23.978Z,595
2016-08-25T05:56:23.669Z,605
2016-08-25T05:57:23.981Z,610
2016-08-25T05:58:23.540Z,645
2016-08-25T05:59:23.552Z,705
2016-08-25T06:00:23.569Z,725
2016-08-25T06:01:23.569Z,750
2016-08-25T06:02:23.573Z,760
2016-08-25T06:03:24.404Z,765
2016-08-25T06:04:23.594Z,780
2016-08-25T06:05:23.604Z,795
2016-08-25T06:06:23.628Z,810
2016-08-25T06:07:23.630Z,830
2016-08-25T06:08:23.634Z,855
2016-08-25T06:09:23.659Z,860
2016-08-25T06:10:23.658Z,875
2016-08-25T06:11:23.657Z,880
2016-08-25T06:12:23.673Z,890
2016-08-25T06:13:23.691Z,895
2016-08-25T06:14:23.697Z,900
2016-08-25T06:15:23.711Z,900
2016-08-25T06:16:23.724Z,900
2016-08-25T06:17:23.729Z,910
2016-08-25T06:18:23.745Z,920
2016-08-25T06:19:23.774Z,945
2016-08-25T06:20:23.755Z,955
2016-08-25T06:21:23.767Z,980
2016-08-25T06:22:23.787Z,980
2016-08-25T06:23:23.803Z,945
2016-08-25T06:24:27.142Z,920
2016-08-25T06:25:26.559Z,920
2016-08-25T06:26:25.574Z,915
2016-08-25T06:27:25.216Z,920
2016-08-25T06:28:24.647Z,930
2016-08-25T06:29:23.897Z,950
2016-08-25T06:30:23.881Z,950
2016-08-25T06:31:23.893Z,955
2016-08-25T06:32:23.901Z,930
2016-08-25T06:33:26.121Z,875
2016-08-25T06:34:26.780Z,835
2016-08-25T06:35:26.599Z,825
2016-08-25T06:36:24.405Z,830
2016-08-25T06:37:24.054Z,845
2016-08-25T06:38:24.000Z,855
2016-08-25T06:39:24.024Z,865
2016-08-25T06:40:24.024Z,875
2016-08-25T06:41:24.027Z,875
2016-08-25T06:42:24.008Z,890
2016-08-25T06:43:24.051Z,905
2016-08-25T06:44:24.070Z,920
2016-08-25T06:45:24.085Z,935
2016-08-25T06:46:24.110Z,945
2016-08-25T06:47:24.126Z,955
2016-08-25T06:48:24.843Z,955
2016-08-25T06:49:24.163Z,965
2016-08-25T06:50:24.142Z,965
2016-08-25T06:51:24.164Z,955
2016-08-25T06:52:24.862Z,960
2016-08-25T06:53:24.168Z,960
2016-08-25T06:54:24.167Z,965
2016-08-25T06:55:24.187Z,980
2016-08-25T06:56:24.211Z,990
2016-08-25T06:57:24.199Z,1005
2016-08-25T06:58:24.237Z,1020
2016-08-25T06:59:24.226Z,1040
2016-08-25T07:00:24.238Z,1055
2016-08-25T07:01:25.267Z,1060
2016-08-25T07:02:25.880Z,1075
2016-08-25T07:03:24.580Z,1085
2016-08-25T07:04:24.394Z,1095
2016-08-25T07:05:24.519Z,1100
2016-08-25T07:06:24.463Z,1110
2016-08-25T07:07:24.341Z,1115
2016-08-25T07:08:24.353Z,1110
2016-08-25T07:09:24.349Z,1125
2016-08-25T07:10:26.468Z,1120
2016-08-25T07:11:39.718Z,1135
2016-08-25T07:12:25.141Z,1150
2016-08-25T07:13:25.270Z,1155
2016-08-25T07:14:24.922Z,1170
2016-08-25T07:15:24.650Z,1195
2016-08-25T07:16:24.439Z,1220
2016-08-25T07:17:24.471Z,1210
2016-08-25T07:18:24.478Z,1200
2016-08-25T07:19:24.480Z,1190
2016-08-25T07:20:24.503Z,1200
2016-08-25T07:21:24.513Z,1210
2016-08-25T07:22:24.547Z,1220
2016-08-25T07:23:24.559Z,1235
2016-08-25T07:24:24.561Z,1245
2016-08-25T07:25:24.587Z,1255
2016-08-25T07:26:24.576Z,1265
2016-08-25T07:27:24.615Z,1275
2016-08-25T07:28:24.597Z,1290
2016-08-25T07:29:24.630Z,1300
2016-08-25T07:30:24.611Z,1305
2016-08-25T07:31:24.635Z,1315
2016-08-25T07:32:24.637Z,1325
2016-08-25T07:33:24.664Z,1330
2016-08-25T07:34:24.659Z,1340
2016-08-25T07:35:24.708Z,1360
2016-08-25T07:36:24.697Z,1375
2016-08-25T07:37:24.702Z,1390
2016-08-25T07:38:24.738Z,1385
2016-08-25T07:39:24.735Z,1390
2016-08-25T07:40:24.759Z,1400
2016-08-25T07:41:24.764Z,1420
2016-08-25T07:42:26.991Z,1425
2016-08-25T07:44:25.826Z,1455
2016-08-25T07:45:26.403Z,1460
2016-08-25T07:46:24.833Z,1475
2016-08-25T07:47:26.348Z,1480
2016-08-25T07:48:25.083Z,1495
2016-08-25T07:49:24.854Z,1505
2016-08-25T07:50:24.957Z,1515
2016-08-25T07:52:28.509Z,1530
2016-08-25T07:53:27.224Z,1535
2016-08-25T07:54:25.985Z,1565
2016-08-25T07:55:26.497Z,1575
2016-08-25T07:56:26.429Z,1600
2016-08-25T07:57:25.327Z,1605
2016-08-25T07:58:24.968Z,1630
2016-08-25T07:59:24.995Z,1680
2016-08-25T08:00:24.997Z,1680
2016-08-25T08:01:25.044Z,1640
2016-08-25T08:02:25.024Z,1625
2016-08-25T08:03:25.045Z,1625
2016-08-25T08:04:25.108Z,1630
2016-08-25T08:05:25.074Z,1635
2016-08-25T08:06:25.073Z,1640
2016-08-25T08:07:25.097Z,1640
2016-08-25T08:08:25.104Z,1640
2016-08-25T08:09:25.126Z,1650
2016-08-25T08:10:25.122Z,1650
2016-08-25T08:11:25.150Z,1655
2016-08-25T08:12:25.153Z,1675
2016-08-25T08:13:25.153Z,1685
2016-08-25T08:14:25.194Z,1680
2016-08-25T08:15:25.210Z,1690
2016-08-25T08:16:25.204Z,1690
2016-08-25T08:17:25.218Z,1700
2016-08-25T08:18:25.238Z,1710
2016-08-25T08:19:26.007Z,1715
2016-08-25T08:20:25.949Z,1715
2016-08-25T08:24:25.301Z,1735
2016-08-25T08:25:25.317Z,1735
2016-08-25T08:26:25.330Z,1755
2016-08-25T08:27:25.337Z,1725
2016-08-25T08:28:27.280Z,1005
2016-08-25T08:29:27.225Z,255
2016-08-25T08:32:26.552Z,200
2016-08-25T08:33:25.681Z,200
2016-08-25T08:34:25.419Z,200
2016-08-25T08:35:25.448Z,200
2016-08-25T08:36:26.152Z,200
2016-08-25T08:37:25.458Z,200
2016-08-25T08:38:25.495Z,200
2016-08-25T08:39:25.494Z,200
2016-08-25T08:40:25.500Z,200
2016-08-25T08:41:25.491Z,200
2016-08-25T08:42:25.511Z,200
2016-08-25T08:43:25.529Z,200
2016-08-25T08:44:25.526Z,200
2016-08-25T08:45:25.519Z,200
2016-08-25T08:46:25.522Z,200
2016-08-25T08:47:25.556Z,200
2016-08-25T08:48:25.537Z,200
2016-08-25T08:49:25.596Z,200
2016-08-25T08:50:25.562Z,200
2016-08-25T08:51:25.574Z,195
2016-08-25T08:52:25.582Z,195
2016-08-25T08:53:25.589Z,195
2016-08-25T08:54:25.591Z,195
2016-08-25T08:55:25.600Z,195
2016-08-25T08:56:25.608Z,195
2016-08-25T08:57:25.592Z,195
2016-08-25T08:58:25.622Z,195
2016-08-25T08:59:25.624Z,195
2016-08-25T09:00:27.489Z,195
2016-08-25T09:01:30.454Z,195
2016-08-25T09:02:27.237Z,195
2016-08-25T09:03:25.985Z,195
2016-08-25T09:04:26.604Z,195
2016-08-25T09:05:26.105Z,195
2016-08-25T09:06:25.696Z,195
2016-08-25T09:07:25.838Z,195
2016-08-25T09:08:25.702Z,190
2016-08-25T09:09:28.801Z,190
2016-08-25T09:11:26.592Z,190
2016-08-25T09:12:27.735Z,190
2016-08-25T09:13:26.419Z,190
2016-08-25T09:14:26.132Z,190
2016-08-25T09:15:25.686Z,190
2016-08-25T09:16:25.711Z,190
2016-08-25T09:17:25.697Z,190
2016-08-25T09:18:25.713Z,190
2016-08-25T09:19:25.708Z,190
2016-08-25T09:20:25.736Z,190
2016-08-25T09:21:25.716Z,190
2016-08-25T09:22:25.730Z,190
2016-08-25T09:23:25.728Z,185
2016-08-25T09:24:25.724Z,185
2016-08-25T09:25:25.768Z,185
2016-08-25T09:26:25.752Z,185
2016-08-25T09:27:25.743Z,185
2016-08-25T09:28:25.757Z,185
2016-08-25T09:29:25.744Z,185
2016-08-25T09:30:25.753Z,185
2016-08-25T09:31:25.766Z,185
2016-08-25T09:32:25.759Z,185
2016-08-25T09:33:25.769Z,185
2016-08-25T09:34:25.763Z,185
2016-08-25T09:35:25.763Z,185
2016-08-25T09:36:25.808Z,185
2016-08-25T09:37:26.052Z,185
2016-08-25T09:38:26.554Z,185
2016-08-25T09:39:27.181Z,185
2016-08-25T09:40:28.646Z,185
2016-08-25T09:41:40.716Z,185
2016-08-25T09:42:25.797Z,185
2016-08-25T09:43:25.833Z,185
2016-08-25T09:44:25.838Z,180
2016-08-25T09:45:26.535Z,180
2016-08-25T09:46:26.262Z,180
2016-08-25T09:47:25.939Z,180
2016-08-25T09:48:26.268Z,180
2016-08-25T09:49:26.236Z,180
2016-08-25T09:50:25.874Z,180
2016-08-25T09:51:40.750Z,180
2016-08-25T09:52:26.360Z,180
2016-08-25T09:53:25.874Z,180
2016-08-25T09:54:25.838Z,180
2016-08-25T09:55:26.564Z,180
2016-08-25T09:56:25.849Z,180
2016-08-25T09:57:25.854Z,180
2016-08-25T09:58:25.862Z,180
2016-08-25T09:59:25.889Z,180
2016-08-25T10:00:25.890Z,180
2016-08-25T10:01:25.881Z,180
2016-08-25T10:02:25.870Z,180
2016-08-25T10:03:25.883Z,175
2016-08-25T10:04:25.878Z,175
2016-08-25T10:05:25.909Z,175
2016-08-25T10:06:25.890Z,175
2016-08-25T10:07:25.911Z,175
2016-08-25T10:08:25.906Z,175
2016-08-25T10:09:25.910Z,175
2016-08-25T10:10:25.906Z,175
2016-08-25T10:11:25.933Z,175
2016-08-25T10:12:25.908Z,175
2016-08-25T10:13:25.932Z,175
2016-08-25T10:14:26.617Z,175
2016-08-25T10:15:25.925Z,175
2016-08-25T10:16:25.955Z,175
2016-08-25T10:17:25.960Z,175
2016-08-25T10:18:28.154Z,175
2016-08-25T10:19:27.745Z,175
2016-08-25T10:20:28.724Z,175
2016-08-25T10:21:27.817Z,175
2016-08-25T10:22:25.953Z,175
2016-08-25T10:23:26.225Z,175
2016-08-25T10:24:26.670Z,175
2016-08-25T10:25:25.986Z,175
2016-08-25T10:26:25.991Z,170
2016-08-25T10:27:29.469Z,170
2016-08-25T10:29:27.950Z,170
2016-08-25T10:30:27.394Z,170
2016-08-25T10:31:28.555Z,175
2016-08-25T10:32:26.436Z,170
2016-08-25T10:33:26.031Z,170
2016-08-25T10:34:26.015Z,170
2016-08-25T10:35:26.012Z,170
2016-08-25T10:36:26.031Z,175
2016-08-25T10:37:26.028Z,170
2016-08-25T10:38:26.735Z,170
2016-08-25T10:39:26.050Z,170
2016-08-25T10:40:26.069Z,170
2016-08-25T10:41:26.042Z,170
2016-08-25T10:42:26.054Z,170
2016-08-25T10:43:26.045Z,170
2016-08-25T10:44:26.060Z,170
2016-08-25T10:45:26.057Z,165
2016-08-25T10:46:26.089Z,165
2016-08-25T10:47:26.076Z,165
2016-08-25T10:48:26.090Z,165
2016-08-25T10:49:26.076Z,165
2016-08-25T10:50:26.096Z,165
2016-08-25T10:51:26.094Z,165
2016-08-25T10:52:26.089Z,165
2016-08-25T10:53:26.098Z,165
2016-08-25T10:54:26.104Z,165
2016-08-25T10:55:28.523Z,165
2016-08-25T10:58:41.278Z,165
2016-08-25T11:00:26.126Z,160
2016-08-25T11:01:26.146Z,165
2016-08-25T11:02:26.143Z,160
2016-08-25T11:03:26.152Z,160
2016-08-25T11:04:43.225Z,160
2016-08-25T11:05:27.401Z,160
2016-08-25T11:06:26.736Z,160
2016-08-25T11:07:26.508Z,160
2016-08-25T11:08:26.398Z,160
2016-08-25T11:09:27.048Z,160
2016-08-25T11:10:26.212Z,160
2016-08-25T11:11:26.184Z,160
2016-08-25T11:12:26.265Z,160
2016-08-25T11:13:26.213Z,160
2016-08-25T11:14:26.202Z,160
2016-08-25T11:15:26.197Z,160
2016-08-25T11:16:26.194Z,160
2016-08-25T11:17:26.210Z,160
2016-08-25T11:18:26.223Z,160
2016-08-25T11:19:26.207Z,160
2016-08-25T11:20:26.224Z,160
2016-08-25T11:21:26.230Z,160
2016-08-25T11:22:26.237Z,160
2016-08-25T11:23:26.235Z,160
2016-08-25T11:24:26.281Z,160
2016-08-25T11:25:26.270Z,160
2016-08-25T11:26:26.267Z,160
2016-08-25T11:27:26.265Z,160
2016-08-25T11:28:26.273Z,160
2016-08-25T11:29:26.271Z,160
2016-08-25T11:30:26.278Z,160
2016-08-25T11:31:26.307Z,160
2016-08-25T11:32:26.279Z,160
2016-08-25T11:33:26.289Z,160
2016-08-25T11:34:26.297Z,160
2016-08-25T11:35:26.317Z,160
2016-08-25T11:37:28.746Z,160
2016-08-25T11:38:30.010Z,160
2016-08-25T11:39:29.449Z,160
2016-08-25T11:40:27.751Z,160
2016-08-25T11:41:26.347Z,160
2016-08-25T11:42:26.359Z,160
2016-08-25T11:43:26.332Z,160
2016-08-25T11:44:26.340Z,160
2016-08-25T11:45:30.171Z,160
2016-08-25T11:46:27.996Z,160
2016-08-25T11:47:29.493Z,160
2016-08-25T11:48:29.201Z,160
2016-08-25T11:49:27.729Z,160
2016-08-25T11:50:26.376Z,160
2016-08-25T11:51:26.381Z,160
2016-08-25T11:52:26.395Z,155
2016-08-25T11:53:26.384Z,155
2016-08-25T11:54:26.409Z,155
2016-08-25T11:55:26.391Z,155
2016-08-25T11:56:26.421Z,155
2016-08-25T11:57:26.441Z,155
2016-08-25T11:58:27.114Z,155
2016-08-25T11:59:26.425Z,155
2016-08-25T12:00:26.432Z,155
2016-08-25T12:01:26.422Z,155
2016-08-25T12:02:26.447Z,155
2016-08-25T12:03:26.466Z,155
2016-08-25T12:04:26.487Z,155
2016-08-25T12:05:26.474Z,155
2016-08-25T12:06:26.467Z,155
2016-08-25T12:07:26.494Z,155
2016-08-25T12:08:26.477Z,155
2016-08-25T12:09:27.856Z,155
2016-08-25T12:10:27.195Z,155
2016-08-25T12:11:26.503Z,155
2016-08-25T12:12:26.489Z,155
2016-08-25T12:13:41.899Z,155
2016-08-25T12:15:27.567Z,155
2016-08-25T12:16:27.926Z,155
2016-08-25T12:17:26.522Z,155
2016-08-25T12:18:26.724Z,155
2016-08-25T12:19:27.309Z,155
2016-08-25T12:20:26.563Z,155
2016-08-25T12:21:26.540Z,155
2016-08-25T12:22:27.696Z,155
2016-08-25T12:23:27.452Z,155
2016-08-25T12:24:26.755Z,155
2016-08-25T12:25:41.529Z,155
2016-08-25T12:26:26.952Z,150
2016-08-25T12:27:27.379Z,150
2016-08-25T12:28:26.570Z,150
2016-08-25T12:29:26.572Z,150
2016-08-25T12:30:26.583Z,150
2016-08-25T12:31:27.304Z,150
2016-08-25T12:32:26.587Z,150
2016-08-25T12:33:26.599Z,150
2016-08-25T12:34:27.320Z,150
2016-08-25T12:35:26.627Z,150
2016-08-25T12:36:26.618Z,150
2016-08-25T12:37:26.613Z,150
2016-08-25T12:38:27.350Z,150
2016-08-25T12:39:26.623Z,150
2016-08-25T12:40:26.671Z,150
2016-08-25T12:41:26.635Z,150
2016-08-25T12:42:26.667Z,150
2016-08-25T12:43:26.654Z,150
2016-08-25T12:44:26.696Z,150
2016-08-25T12:45:26.659Z,150
2016-08-25T12:46:26.706Z,150
2016-08-25T12:47:26.683Z,150
2016-08-25T12:48:26.689Z,150
2016-08-25T12:49:26.717Z,150
2016-08-25T12:50:26.687Z,150
2016-08-25T12:51:26.712Z,150
2016-08-25T12:52:26.697Z,150
2016-08-25T12:53:26.734Z,150
2016-08-25T12:54:29.157Z,150
2016-08-25T12:55:29.868Z,150
2016-08-25T12:56:27.955Z,145
2016-08-25T12:57:28.015Z,145
2016-08-25T12:58:27.707Z,145
2016-08-25T12:59:26.730Z,145
2016-08-25T13:00:26.745Z,145
2016-08-25T13:01:26.759Z,145
2016-08-25T13:02:26.755Z,145
2016-08-25T13:04:28.504Z,145
2016-08-25T13:05:30.754Z,145
2016-08-25T13:06:27.743Z,145
2016-08-25T13:07:27.484Z,145
2016-08-25T13:08:26.779Z,145
2016-08-25T13:09:26.782Z,145
2016-08-25T13:10:26.812Z,145
2016-08-25T13:11:26.891Z,145
2016-08-25T13:12:26.839Z,145
2016-08-25T13:13:26.830Z,145
2016-08-25T13:14:26.829Z,145
2016-08-25T13:15:26.828Z,145
2016-08-25T13:16:26.845Z,145
2016-08-25T13:17:26.827Z,145
2016-08-25T13:18:26.872Z,145
2016-08-25T13:19:26.849Z,145
2016-08-25T13:20:27.579Z,145
2016-08-25T13:21:26.877Z,145
2016-08-25T13:22:26.860Z,145
2016-08-25T13:23:26.903Z,145
2016-08-25T13:24:26.893Z,145
2016-08-25T13:25:26.898Z,145
2016-08-25T13:26:26.886Z,145
2016-08-25T13:27:26.899Z,145
2016-08-25T13:28:26.935Z,145
2016-08-25T13:29:26.911Z,145
2016-08-25T13:30:26.923Z,145
2016-08-25T13:31:27.620Z,145
2016-08-25T13:32:26.928Z,145
2016-08-25T13:33:26.921Z,145
2016-08-25T13:34:26.937Z,145
2016-08-25T13:35:26.930Z,145
2016-08-25T13:36:27.654Z,145
2016-08-25T13:37:27.665Z,145
2016-08-25T13:38:26.963Z,140
2016-08-25T13:39:26.975Z,140
2016-08-25T13:40:27.666Z,140
2016-08-25T13:41:27.000Z,140
2016-08-25T13:42:26.987Z,140
2016-08-25T13:43:27.687Z,140
2016-08-25T13:44:27.004Z,140
2016-08-25T13:45:27.705Z,140
2016-08-25T13:46:26.991Z,140
2016-08-25T13:47:27.007Z,140
2016-08-25T13:48:27.005Z,140
2016-08-25T13:49:27.007Z,140
2016-08-25T13:50:27.010Z,140
2016-08-25T13:51:27.053Z,140
2016-08-25T13:52:27.042Z,140
2016-08-25T13:53:27.084Z,140
2016-08-25T13:54:27.058Z,140
2016-08-25T13:55:27.052Z,140
2016-08-25T13:56:27.049Z,140
2016-08-25T13:57:27.057Z,140
2016-08-25T13:58:27.073Z,140
2016-08-25T13:59:27.091Z,140
2016-08-25T14:00:27.098Z,140
2016-08-25T14:01:27.094Z,140
2016-08-25T14:02:27.094Z,140
2016-08-25T14:03:27.094Z,140
2016-08-25T14:04:27.086Z,140
2016-08-25T14:05:27.114Z,140
2016-08-25T14:06:27.108Z,140
2016-08-25T14:07:27.210Z,140
2016-08-25T14:08:27.129Z,140
2016-08-25T14:09:27.129Z,140
2016-08-25T14:10:27.125Z,140
2016-08-25T14:11:27.143Z,140
2016-08-25T14:12:29.677Z,140
2016-08-25T14:13:28.792Z,140
2016-08-25T14:14:29.265Z,140
2016-08-25T14:15:29.680Z,140
2016-08-25T14:16:29.633Z,140
2016-08-25T14:17:28.296Z,140
2016-08-25T14:18:27.165Z,140
2016-08-25T14:19:27.200Z,140
2016-08-25T14:20:27.287Z,140
2016-08-25T14:22:29.435Z,140
2016-08-25T14:23:28.586Z,140
2016-08-25T14:24:29.324Z,140